sensor_id;sensor_type;location;lat;lon;timestamp;P1;durP1;ratioP1;P2;durP2;ratioP2
40537;SDS011;27925;41.874;12.526;2023-02-01T00:01:53;32.00;;;22.55;;
40537;SDS011;27925;41.874;12.526;2023-02-01T00:04:20;35.58;;;22.30;;
40537;SDS011;27925;41.874;12.526;2023-02-01T00:06:46;37.00;;;21.50;;
40537;SDS011;27925;41.874;12.526;2023-02-01T00:09:11;34.58;;;21.70;;
40537;SDS011;27925;41.874;12.526;2023-02-01T00:11:37;33.05;;;22.13;;
40537;SDS011;27925;41.874;12.526;2023-02-01T00:14:03;32.95;;;20.85;;
40537;SDS011;27925;41.874;12.526;2023-02-01T00:16:29;32.75;;;20.20;;
40537;SDS011;27925;41.874;12.526;2023-02-01T00:18:57;36.22;;;20.77;;
40537;SDS011;27925;41.874;12.526;2023-02-01T00:21:25;31.88;;;21.70;;
40537;SDS011;27925;41.874;12.526;2023-02-01T00:23:51;30.85;;;20.08;;
40537;SDS011;27925;41.874;12.526;2023-02-01T00:26:17;30.45;;;20.90;;
40537;SDS011;27925;41.874;12.526;2023-02-01T00:28:52;35.63;;;21.17;;
40537;SDS011;27925;41.874;12.526;2023-02-01T00:31:18;31.25;;;21.45;;
40537;SDS011;27925;41.874;12.526;2023-02-01T00:33:46;29.58;;;19.45;;
40537;SDS011;27925;41.874;12.526;2023-02-01T00:36:12;28.35;;;20.17;;
40537;SDS011;27925;41.874;12.526;2023-02-01T00:38:38;31.63;;;20.05;;
40537;SDS011;27925;41.874;12.526;2023-02-01T00:43:31;35.88;;;22.25;;
40537;SDS011;27925;41.874;12.526;2023-02-01T00:45:57;29.70;;;20.30;;
40537;SDS011;27925;41.874;12.526;2023-02-01T00:48:24;30.55;;;20.02;;
40537;SDS011;27925;41.874;12.526;2023-02-01T00:50:50;32.80;;;20.08;;
40537;SDS011;27925;41.874;12.526;2023-02-01T00:53:16;28.73;;;20.13;;
40537;SDS011;27925;41.874;12.526;2023-02-01T00:55:48;31.98;;;18.73;;
40537;SDS011;27925;41.874;12.526;2023-02-01T00:58:14;30.88;;;19.33;;
40537;SDS011;27925;41.874;12.526;2023-02-01T01:00:40;29.15;;;18.27;;
40537;SDS011;27925;41.874;12.526;2023-02-01T01:03:06;26.23;;;18.40;;
40537;SDS011;27925;41.874;12.526;2023-02-01T01:05:46;27.27;;;18.23;;
40537;SDS011;27925;41.874;12.526;2023-02-01T01:08:13;28.88;;;19.20;;
40537;SDS011;27925;41.874;12.526;2023-02-01T01:10:40;28.77;;;19.23;;
40537;SDS011;27925;41.874;12.526;2023-02-01T01:13:07;26.27;;;18.95;;
40537;SDS011;27925;41.874;12.526;2023-02-01T01:15:39;32.08;;;18.90;;
40537;SDS011;27925;41.874;12.526;2023-02-01T01:18:05;28.58;;;17.67;;
40537;SDS011;27925;41.874;12.526;2023-02-01T01:20:33;30.60;;;18.23;;
40537;SDS011;27925;41.874;12.526;2023-02-01T01:23:00;25.83;;;18.30;;
40537;SDS011;27925;41.874;12.526;2023-02-01T01:25:26;28.95;;;18.35;;
40537;SDS011;27925;41.874;12.526;2023-02-01T01:27:52;26.23;;;17.40;;
40537;SDS011;27925;41.874;12.526;2023-02-01T01:30:17;29.30;;;19.08;;
40537;SDS011;27925;41.874;12.526;2023-02-01T01:32:43;29.55;;;17.63;;
40537;SDS011;27925;41.874;12.526;2023-02-01T01:35:09;26.35;;;16.95;;
40537;SDS011;27925;41.874;12.526;2023-02-01T01:37:36;25.60;;;17.67;;
40537;SDS011;27925;41.874;12.526;2023-02-01T01:40:05;28.42;;;17.80;;
40537;SDS011;27925;41.874;12.526;2023-02-01T01:42:39;30.83;;;17.75;;
40537;SDS011;27925;41.874;12.526;2023-02-01T01:47:44;27.17;;;17.75;;
40537;SDS011;27925;41.874;12.526;2023-02-01T01:50:15;26.70;;;17.10;;
40537;SDS011;27925;41.874;12.526;2023-02-01T01:52:45;24.52;;;17.30;;
40537;SDS011;27925;41.874;12.526;2023-02-01T01:55:14;27.38;;;16.98;;
40537;SDS011;27925;41.874;12.526;2023-02-01T01:57:44;23.58;;;16.05;;
40537;SDS011;27925;41.874;12.526;2023-02-01T02:00:15;24.10;;;15.88;;
40537;SDS011;27925;41.874;12.526;2023-02-01T02:02:43;26.83;;;15.30;;
40537;SDS011;27925;41.874;12.526;2023-02-01T02:05:12;25.42;;;15.88;;
40537;SDS011;27925;41.874;12.526;2023-02-01T02:07:40;24.40;;;15.48;;
40537;SDS011;27925;41.874;12.526;2023-02-01T02:10:10;20.23;;;14.85;;
40537;SDS011;27925;41.874;12.526;2023-02-01T02:12:38;24.20;;;15.43;;
40537;SDS011;27925;41.874;12.526;2023-02-01T02:15:06;25.00;;;15.18;;
40537;SDS011;27925;41.874;12.526;2023-02-01T02:37:13;22.77;;;15.18;;
40537;SDS011;27925;41.874;12.526;2023-02-01T02:46:07;22.60;;;15.32;;
40537;SDS011;27925;41.874;12.526;2023-02-01T02:49:15;22.35;;;14.73;;
40537;SDS011;27925;41.874;12.526;2023-02-01T02:54:53;21.75;;;15.55;;
40537;SDS011;27925;41.874;12.526;2023-02-01T03:00:09;24.08;;;15.73;;
40537;SDS011;27925;41.874;12.526;2023-02-01T03:02:57;23.63;;;15.77;;
40537;SDS011;27925;41.874;12.526;2023-02-01T03:13:50;21.05;;;13.90;;
40537;SDS011;27925;41.874;12.526;2023-02-01T03:16:28;22.10;;;14.45;;
40537;SDS011;27925;41.874;12.526;2023-02-01T03:19:06;20.42;;;14.15;;
40537;SDS011;27925;41.874;12.526;2023-02-01T03:21:53;21.73;;;14.90;;
40537;SDS011;27925;41.874;12.526;2023-02-01T03:27:00;20.88;;;15.48;;
40537;SDS011;27925;41.874;12.526;2023-02-01T03:29:32;21.00;;;15.00;;
40537;SDS011;27925;41.874;12.526;2023-02-01T03:32:09;21.02;;;14.43;;
40537;SDS011;27925;41.874;12.526;2023-02-01T03:34:35;20.20;;;15.02;;
40537;SDS011;27925;41.874;12.526;2023-02-01T03:37:02;24.17;;;16.48;;
40537;SDS011;27925;41.874;12.526;2023-02-01T03:39:48;21.73;;;14.85;;
40537;SDS011;27925;41.874;12.526;2023-02-01T03:42:40;22.38;;;14.90;;
40537;SDS011;27925;41.874;12.526;2023-02-01T03:45:12;20.13;;;13.88;;
40537;SDS011;27925;41.874;12.526;2023-02-01T03:47:43;20.98;;;14.65;;
40537;SDS011;27925;41.874;12.526;2023-02-01T03:50:14;22.90;;;15.32;;
40537;SDS011;27925;41.874;12.526;2023-02-01T03:52:47;22.10;;;13.90;;
40537;SDS011;27925;41.874;12.526;2023-02-01T03:55:18;21.17;;;14.80;;
40537;SDS011;27925;41.874;12.526;2023-02-01T03:57:49;23.63;;;14.30;;
40537;SDS011;27925;41.874;12.526;2023-02-01T04:00:26;20.30;;;14.45;;
40537;SDS011;27925;41.874;12.526;2023-02-01T04:02:52;23.58;;;15.07;;
40537;SDS011;27925;41.874;12.526;2023-02-01T04:05:18;20.98;;;15.02;;
40537;SDS011;27925;41.874;12.526;2023-02-01T04:07:44;20.10;;;14.70;;
40537;SDS011;27925;41.874;12.526;2023-02-01T04:10:10;20.98;;;14.32;;
40537;SDS011;27925;41.874;12.526;2023-02-01T04:12:37;22.63;;;14.27;;
40537;SDS011;27925;41.874;12.526;2023-02-01T04:15:03;22.90;;;14.60;;
40537;SDS011;27925;41.874;12.526;2023-02-01T04:17:29;20.92;;;13.75;;
40537;SDS011;27925;41.874;12.526;2023-02-01T04:19:55;19.20;;;13.90;;
40537;SDS011;27925;41.874;12.526;2023-02-01T04:22:21;20.42;;;13.82;;
40537;SDS011;27925;41.874;12.526;2023-02-01T04:24:46;19.45;;;13.63;;
40537;SDS011;27925;41.874;12.526;2023-02-01T04:27:12;19.88;;;13.80;;
40537;SDS011;27925;41.874;12.526;2023-02-01T04:29:38;19.55;;;13.85;;
40537;SDS011;27925;41.874;12.526;2023-02-01T04:32:04;18.17;;;13.68;;
40537;SDS011;27925;41.874;12.526;2023-02-01T04:34:30;23.13;;;13.48;;
40537;SDS011;27925;41.874;12.526;2023-02-01T04:36:56;17.17;;;12.40;;
40537;SDS011;27925;41.874;12.526;2023-02-01T04:39:22;19.35;;;12.75;;
40537;SDS011;27925;41.874;12.526;2023-02-01T04:41:48;17.58;;;12.07;;
40537;SDS011;27925;41.874;12.526;2023-02-01T04:44:14;17.42;;;11.52;;
40537;SDS011;27925;41.874;12.526;2023-02-01T04:46:41;20.13;;;11.77;;
40537;SDS011;27925;41.874;12.526;2023-02-01T04:49:08;16.80;;;11.75;;
40537;SDS011;27925;41.874;12.526;2023-02-01T04:51:35;17.48;;;11.45;;
40537;SDS011;27925;41.874;12.526;2023-02-01T04:54:00;19.08;;;11.85;;
40537;SDS011;27925;41.874;12.526;2023-02-01T04:56:26;26.17;;;12.15;;
40537;SDS011;27925;41.874;12.526;2023-02-01T04:58:52;25.27;;;13.48;;
40537;SDS011;27925;41.874;12.526;2023-02-01T05:01:18;20.00;;;11.98;;
40537;SDS011;27925;41.874;12.526;2023-02-01T05:03:43;15.27;;;11.65;;
40537;SDS011;27925;41.874;12.526;2023-02-01T05:06:09;19.17;;;12.07;;
40537;SDS011;27925;41.874;12.526;2023-02-01T05:08:35;16.20;;;11.45;;
40537;SDS011;27925;41.874;12.526;2023-02-01T05:11:01;18.13;;;12.38;;
40537;SDS011;27925;41.874;12.526;2023-02-01T05:13:30;18.52;;;12.00;;
40537;SDS011;27925;41.874;12.526;2023-02-01T05:18:40;16.08;;;10.90;;
40537;SDS011;27925;41.874;12.526;2023-02-01T05:21:05;17.88;;;11.45;;
40537;SDS011;27925;41.874;12.526;2023-02-01T05:23:31;16.75;;;11.10;;
40537;SDS011;27925;41.874;12.526;2023-02-01T05:25:58;18.40;;;11.20;;
40537;SDS011;27925;41.874;12.526;2023-02-01T05:28:25;18.80;;;11.63;;
40537;SDS011;27925;41.874;12.526;2023-02-01T05:30:52;33.60;;;12.15;;
40537;SDS011;27925;41.874;12.526;2023-02-01T05:33:17;16.60;;;11.23;;
40537;SDS011;27925;41.874;12.526;2023-02-01T05:35:43;15.98;;;10.15;;
40537;SDS011;27925;41.874;12.526;2023-02-01T05:38:09;17.23;;;10.73;;
40537;SDS011;27925;41.874;12.526;2023-02-01T05:40:34;18.13;;;11.13;;
40537;SDS011;27925;41.874;12.526;2023-02-01T05:43:00;15.00;;;10.27;;
40537;SDS011;27925;41.874;12.526;2023-02-01T05:45:26;17.20;;;11.15;;
40537;SDS011;27925;41.874;12.526;2023-02-01T05:47:51;18.40;;;11.57;;
40537;SDS011;27925;41.874;12.526;2023-02-01T05:50:17;16.25;;;10.40;;
40537;SDS011;27925;41.874;12.526;2023-02-01T05:52:43;15.27;;;9.93;;
40537;SDS011;27925;41.874;12.526;2023-02-01T05:55:09;18.90;;;11.38;;
40537;SDS011;27925;41.874;12.526;2023-02-01T05:57:34;18.95;;;11.30;;
40537;SDS011;27925;41.874;12.526;2023-02-01T06:00:00;19.77;;;10.80;;
40537;SDS011;27925;41.874;12.526;2023-02-01T06:02:26;18.88;;;10.63;;
40537;SDS011;27925;41.874;12.526;2023-02-01T06:04:52;18.65;;;11.75;;
40537;SDS011;27925;41.874;12.526;2023-02-01T06:07:18;17.15;;;11.02;;
40537;SDS011;27925;41.874;12.526;2023-02-01T06:09:43;17.05;;;11.25;;
40537;SDS011;27925;41.874;12.526;2023-02-01T06:12:09;16.42;;;10.20;;
40537;SDS011;27925;41.874;12.526;2023-02-01T06:14:35;19.08;;;10.15;;
40537;SDS011;27925;41.874;12.526;2023-02-01T06:17:02;16.65;;;10.82;;
40537;SDS011;27925;41.874;12.526;2023-02-01T06:19:27;17.35;;;10.82;;
40537;SDS011;27925;41.874;12.526;2023-02-01T06:21:53;17.45;;;10.57;;
40537;SDS011;27925;41.874;12.526;2023-02-01T06:24:19;18.23;;;10.65;;
40537;SDS011;27925;41.874;12.526;2023-02-01T06:26:45;17.73;;;11.10;;
40537;SDS011;27925;41.874;12.526;2023-02-01T06:29:10;21.23;;;10.82;;
40537;SDS011;27925;41.874;12.526;2023-02-01T06:31:37;17.98;;;11.25;;
40537;SDS011;27925;41.874;12.526;2023-02-01T06:34:02;18.77;;;11.75;;
40537;SDS011;27925;41.874;12.526;2023-02-01T06:36:28;17.80;;;12.00;;
40537;SDS011;27925;41.874;12.526;2023-02-01T06:38:55;18.08;;;12.45;;
40537;SDS011;27925;41.874;12.526;2023-02-01T06:41:22;19.77;;;12.57;;
40537;SDS011;27925;41.874;12.526;2023-02-01T06:43:48;26.75;;;14.48;;
40537;SDS011;27925;41.874;12.526;2023-02-01T06:46:14;27.00;;;14.98;;
40537;SDS011;27925;41.874;12.526;2023-02-01T06:48:40;23.60;;;14.90;;
40537;SDS011;27925;41.874;12.526;2023-02-01T06:51:06;21.00;;;13.98;;
40537;SDS011;27925;41.874;12.526;2023-02-01T06:53:43;21.83;;;13.93;;
40537;SDS011;27925;41.874;12.526;2023-02-01T06:56:08;20.45;;;12.65;;
40537;SDS011;27925;41.874;12.526;2023-02-01T06:58:34;18.40;;;12.25;;
40537;SDS011;27925;41.874;12.526;2023-02-01T07:01:07;18.70;;;12.15;;
40537;SDS011;27925;41.874;12.526;2023-02-01T07:03:33;21.25;;;12.48;;
40537;SDS011;27925;41.874;12.526;2023-02-01T07:05:59;17.02;;;11.85;;
40537;SDS011;27925;41.874;12.526;2023-02-01T07:08:28;18.05;;;12.50;;
40537;SDS011;27925;41.874;12.526;2023-02-01T07:10:55;26.00;;;13.27;;
40537;SDS011;27925;41.874;12.526;2023-02-01T07:13:21;22.67;;;12.85;;
40537;SDS011;27925;41.874;12.526;2023-02-01T07:15:46;19.50;;;11.25;;
40537;SDS011;27925;41.874;12.526;2023-02-01T07:18:13;17.60;;;12.40;;
40537;SDS011;27925;41.874;12.526;2023-02-01T07:20:39;24.58;;;10.98;;
40537;SDS011;27925;41.874;12.526;2023-02-01T07:23:05;18.05;;;11.32;;
40537;SDS011;27925;41.874;12.526;2023-02-01T07:25:34;16.15;;;10.50;;
40537;SDS011;27925;41.874;12.526;2023-02-01T07:27:59;18.45;;;10.68;;
40537;SDS011;27925;41.874;12.526;2023-02-01T07:30:25;19.55;;;10.50;;
40537;SDS011;27925;41.874;12.526;2023-02-01T07:32:51;17.77;;;10.07;;
40537;SDS011;27925;41.874;12.526;2023-02-01T07:35:16;24.65;;;10.70;;
40537;SDS011;27925;41.874;12.526;2023-02-01T07:37:42;17.38;;;10.32;;
40537;SDS011;27925;41.874;12.526;2023-02-01T07:40:08;18.85;;;10.15;;
40537;SDS011;27925;41.874;12.526;2023-02-01T07:42:34;18.45;;;11.00;;
40537;SDS011;27925;41.874;12.526;2023-02-01T07:45:00;16.83;;;10.18;;
40537;SDS011;27925;41.874;12.526;2023-02-01T07:47:27;21.80;;;10.82;;
40537;SDS011;27925;41.874;12.526;2023-02-01T07:49:53;16.90;;;10.73;;
40537;SDS011;27925;41.874;12.526;2023-02-01T07:52:18;18.75;;;10.20;;
40537;SDS011;27925;41.874;12.526;2023-02-01T07:54:44;18.35;;;10.38;;
40537;SDS011;27925;41.874;12.526;2023-02-01T07:57:10;18.13;;;10.43;;
40537;SDS011;27925;41.874;12.526;2023-02-01T07:59:36;18.60;;;10.35;;
40537;SDS011;27925;41.874;12.526;2023-02-01T08:02:22;16.42;;;10.10;;
40537;SDS011;27925;41.874;12.526;2023-02-01T08:04:48;20.65;;;10.35;;
40537;SDS011;27925;41.874;12.526;2023-02-01T08:07:14;20.67;;;9.77;;
40537;SDS011;27925;41.874;12.526;2023-02-01T08:09:39;16.88;;;9.85;;
40537;SDS011;27925;41.874;12.526;2023-02-01T08:12:05;22.65;;;10.60;;
40537;SDS011;27925;41.874;12.526;2023-02-01T08:14:31;20.20;;;10.98;;
40537;SDS011;27925;41.874;12.526;2023-02-01T08:16:57;15.57;;;10.40;;
40537;SDS011;27925;41.874;12.526;2023-02-01T08:19:22;16.88;;;10.48;;
40537;SDS011;27925;41.874;12.526;2023-02-01T08:21:48;19.70;;;11.15;;
40537;SDS011;27925;41.874;12.526;2023-02-01T08:24:14;20.83;;;12.45;;
40537;SDS011;27925;41.874;12.526;2023-02-01T08:26:39;19.77;;;11.45;;
40537;SDS011;27925;41.874;12.526;2023-02-01T08:29:06;22.00;;;11.30;;
40537;SDS011;27925;41.874;12.526;2023-02-01T08:31:33;21.58;;;11.57;;
40537;SDS011;27925;41.874;12.526;2023-02-01T08:34:00;26.27;;;12.60;;
40537;SDS011;27925;41.874;12.526;2023-02-01T08:36:29;21.73;;;11.20;;
40537;SDS011;27925;41.874;12.526;2023-02-01T08:38:56;22.35;;;11.90;;
40537;SDS011;27925;41.874;12.526;2023-02-01T08:41:23;25.63;;;12.18;;
40537;SDS011;27925;41.874;12.526;2023-02-01T08:43:51;22.42;;;11.60;;
40537;SDS011;27925;41.874;12.526;2023-02-01T08:46:19;20.80;;;11.70;;
40537;SDS011;27925;41.874;12.526;2023-02-01T08:48:45;22.48;;;11.88;;
40537;SDS011;27925;41.874;12.526;2023-02-01T08:51:12;31.42;;;11.73;;
40537;SDS011;27925;41.874;12.526;2023-02-01T08:53:39;22.35;;;11.18;;
40537;SDS011;27925;41.874;12.526;2023-02-01T08:56:06;19.77;;;11.65;;
40537;SDS011;27925;41.874;12.526;2023-02-01T08:58:33;27.13;;;11.65;;
40537;SDS011;27925;41.874;12.526;2023-02-01T09:01:02;21.40;;;11.68;;
40537;SDS011;27925;41.874;12.526;2023-02-01T09:03:29;24.13;;;12.55;;
40537;SDS011;27925;41.874;12.526;2023-02-01T09:05:59;22.15;;;12.63;;
40537;SDS011;27925;41.874;12.526;2023-02-01T09:08:26;23.95;;;12.57;;
40537;SDS011;27925;41.874;12.526;2023-02-01T09:10:52;23.15;;;12.52;;
40537;SDS011;27925;41.874;12.526;2023-02-01T09:13:17;26.65;;;12.85;;
40537;SDS011;27925;41.874;12.526;2023-02-01T09:15:43;19.88;;;12.45;;
40537;SDS011;27925;41.874;12.526;2023-02-01T09:18:09;21.48;;;12.73;;
40537;SDS011;27925;41.874;12.526;2023-02-01T09:20:36;19.67;;;13.43;;
40537;SDS011;27925;41.874;12.526;2023-02-01T09:23:02;18.50;;;12.10;;
40537;SDS011;27925;41.874;12.526;2023-02-01T09:25:27;34.92;;;14.73;;
40537;SDS011;27925;41.874;12.526;2023-02-01T09:27:53;20.40;;;11.65;;
40537;SDS011;27925;41.874;12.526;2023-02-01T09:30:19;21.92;;;12.02;;
40537;SDS011;27925;41.874;12.526;2023-02-01T09:32:45;21.95;;;11.63;;
40537;SDS011;27925;41.874;12.526;2023-02-01T09:35:10;23.58;;;11.52;;
40537;SDS011;27925;41.874;12.526;2023-02-01T09:37:36;19.75;;;11.30;;
40537;SDS011;27925;41.874;12.526;2023-02-01T09:40:02;21.73;;;11.07;;
40537;SDS011;27925;41.874;12.526;2023-02-01T09:47:54;23.02;;;11.43;;
40537;SDS011;27925;41.874;12.526;2023-02-01T09:50:25;20.85;;;12.05;;
40537;SDS011;27925;41.874;12.526;2023-02-01T09:53:33;22.75;;;12.15;;
40537;SDS011;27925;41.874;12.526;2023-02-01T09:56:02;22.30;;;12.35;;
40537;SDS011;27925;41.874;12.526;2023-02-01T09:59:24;17.67;;;10.80;;
40537;SDS011;27925;41.874;12.526;2023-02-01T10:01:53;23.73;;;11.45;;
40537;SDS011;27925;41.874;12.526;2023-02-01T10:04:19;19.33;;;10.98;;
40537;SDS011;27925;41.874;12.526;2023-02-01T10:10:04;20.17;;;11.68;;
40537;SDS011;27925;41.874;12.526;2023-02-01T10:13:42;22.27;;;11.85;;
40537;SDS011;27925;41.874;12.526;2023-02-01T10:16:08;27.27;;;12.20;;
40537;SDS011;27925;41.874;12.526;2023-02-01T10:24:47;23.60;;;13.27;;
40537;SDS011;27925;41.874;12.526;2023-02-01T10:27:27;21.67;;;12.45;;
40537;SDS011;27925;41.874;12.526;2023-02-01T10:30:17;16.50;;;11.82;;
40537;SDS011;27925;41.874;12.526;2023-02-01T10:32:46;23.20;;;13.52;;
40537;SDS011;27925;41.874;12.526;2023-02-01T10:35:15;26.73;;;12.95;;
40537;SDS011;27925;41.874;12.526;2023-02-01T10:37:43;26.50;;;13.50;;
40537;SDS011;27925;41.874;12.526;2023-02-01T10:40:19;23.40;;;13.00;;
40537;SDS011;27925;41.874;12.526;2023-02-01T10:42:49;21.13;;;12.93;;
40537;SDS011;27925;41.874;12.526;2023-02-01T10:45:21;20.02;;;12.88;;
40537;SDS011;27925;41.874;12.526;2023-02-01T10:47:50;24.25;;;13.25;;
40537;SDS011;27925;41.874;12.526;2023-02-01T10:50:33;25.05;;;13.10;;
40537;SDS011;27925;41.874;12.526;2023-02-01T10:53:04;24.02;;;13.73;;
40537;SDS011;27925;41.874;12.526;2023-02-01T10:58:17;23.13;;;13.55;;
40537;SDS011;27925;41.874;12.526;2023-02-01T11:00:46;23.23;;;14.18;;
40537;SDS011;27925;41.874;12.526;2023-02-01T11:08:47;23.05;;;13.65;;
40537;SDS011;27925;41.874;12.526;2023-02-01T11:11:18;37.22;;;15.07;;
40537;SDS011;27925;41.874;12.526;2023-02-01T11:13:44;29.95;;;13.65;;
40537;SDS011;27925;41.874;12.526;2023-02-01T11:16:19;22.13;;;14.25;;
40537;SDS011;27925;41.874;12.526;2023-02-01T11:18:45;20.90;;;12.80;;
40537;SDS011;27925;41.874;12.526;2023-02-01T11:21:19;29.45;;;13.82;;
40537;SDS011;27925;41.874;12.526;2023-02-01T11:23:46;37.65;;;14.68;;
40537;SDS011;27925;41.874;12.526;2023-02-01T11:26:13;26.13;;;14.05;;
40537;SDS011;27925;41.874;12.526;2023-02-01T11:28:48;38.40;;;15.02;;
40537;SDS011;27925;41.874;12.526;2023-02-01T11:31:19;22.95;;;14.00;;
40537;SDS011;27925;41.874;12.526;2023-02-01T11:33:50;27.77;;;14.48;;
40537;SDS011;27925;41.874;12.526;2023-02-01T11:36:20;34.28;;;14.50;;
40537;SDS011;27925;41.874;12.526;2023-02-01T11:39:33;28.20;;;14.77;;
40537;SDS011;27925;41.874;12.526;2023-02-01T11:41:44;28.92;;;13.55;;
40537;SDS011;27925;41.874;12.526;2023-02-01T11:44:40;29.27;;;14.18;;
40537;SDS011;27925;41.874;12.526;2023-02-01T11:47:30;34.05;;;14.40;;
40537;SDS011;27925;41.874;12.526;2023-02-01T11:49:59;34.95;;;15.57;;
40537;SDS011;27925;41.874;12.526;2023-02-01T12:01:47;22.73;;;14.30;;
40537;SDS011;27925;41.874;12.526;2023-02-01T12:04:40;26.30;;;13.02;;
40537;SDS011;27925;41.874;12.526;2023-02-01T12:07:41;25.58;;;13.13;;
40537;SDS011;27925;41.874;12.526;2023-02-01T12:10:17;33.05;;;12.95;;
40537;SDS011;27925;41.874;12.526;2023-02-01T12:15:34;17.23;;;10.55;;
40537;SDS011;27925;41.874;12.526;2023-02-01T12:18:32;18.02;;;9.60;;
40537;SDS011;27925;41.874;12.526;2023-02-01T12:21:04;17.35;;;9.45;;
40537;SDS011;27925;41.874;12.526;2023-02-01T12:35:01;11.50;;;5.15;;
40537;SDS011;27925;41.874;12.526;2023-02-01T12:49:11;13.05;;;6.30;;
40537;SDS011;27925;41.874;12.526;2023-02-01T12:51:43;11.13;;;6.28;;
40537;SDS011;27925;41.874;12.526;2023-02-01T12:54:14;11.70;;;6.88;;
40537;SDS011;27925;41.874;12.526;2023-02-01T12:56:49;16.65;;;7.90;;
40537;SDS011;27925;41.874;12.526;2023-02-01T12:59:25;16.58;;;8.10;;
40537;SDS011;27925;41.874;12.526;2023-02-01T13:02:00;15.38;;;8.15;;
40537;SDS011;27925;41.874;12.526;2023-02-01T13:04:50;18.67;;;9.48;;
40537;SDS011;27925;41.874;12.526;2023-02-01T13:07:28;14.13;;;8.40;;
40537;SDS011;27925;41.874;12.526;2023-02-01T13:10:01;18.75;;;8.52;;
40537;SDS011;27925;41.874;12.526;2023-02-01T13:12:36;15.52;;;7.85;;
40537;SDS011;27925;41.874;12.526;2023-02-01T13:15:16;14.13;;;7.97;;
40537;SDS011;27925;41.874;12.526;2023-02-01T13:17:46;11.98;;;7.40;;
40537;SDS011;27925;41.874;12.526;2023-02-01T13:23:15;14.57;;;8.27;;
40537;SDS011;27925;41.874;12.526;2023-02-01T13:25:53;15.10;;;7.65;;
40537;SDS011;27925;41.874;12.526;2023-02-01T13:28:23;13.02;;;7.78;;
40537;SDS011;27925;41.874;12.526;2023-02-01T13:36:44;15.45;;;8.13;;
40537;SDS011;27925;41.874;12.526;2023-02-01T13:42:21;18.80;;;6.93;;
40537;SDS011;27925;41.874;12.526;2023-02-01T13:44:56;14.93;;;7.22;;
40537;SDS011;27925;41.874;12.526;2023-02-01T13:47:32;14.20;;;7.68;;
40537;SDS011;27925;41.874;12.526;2023-02-01T13:50:09;13.63;;;6.15;;
40537;SDS011;27925;41.874;12.526;2023-02-01T13:52:43;15.48;;;5.97;;
40537;SDS011;27925;41.874;12.526;2023-02-01T13:57:45;16.25;;;6.47;;
40537;SDS011;27925;41.874;12.526;2023-02-01T14:00:29;11.25;;;5.45;;
40537;SDS011;27925;41.874;12.526;2023-02-01T14:13:29;14.73;;;4.07;;
40537;SDS011;27925;41.874;12.526;2023-02-01T14:21:18;7.95;;;3.85;;
40537;SDS011;27925;41.874;12.526;2023-02-01T14:23:48;8.73;;;4.05;;
40537;SDS011;27925;41.874;12.526;2023-02-01T14:26:24;8.20;;;4.20;;
40537;SDS011;27925;41.874;12.526;2023-02-01T14:28:51;7.97;;;4.05;;
40537;SDS011;27925;41.874;12.526;2023-02-01T14:34:15;7.38;;;4.25;;
40537;SDS011;27925;41.874;12.526;2023-02-01T14:36:52;9.02;;;3.85;;
40537;SDS011;27925;41.874;12.526;2023-02-01T14:40:14;15.85;;;5.88;;
40537;SDS011;27925;41.874;12.526;2023-02-01T14:42:28;10.80;;;4.28;;
40537;SDS011;27925;41.874;12.526;2023-02-01T14:58:00;10.30;;;4.43;;
40537;SDS011;27925;41.874;12.526;2023-02-01T15:00:30;9.02;;;4.57;;
40537;SDS011;27925;41.874;12.526;2023-02-01T15:05:56;10.93;;;4.18;;
40537;SDS011;27925;41.874;12.526;2023-02-01T15:08:28;14.30;;;4.43;;
40537;SDS011;27925;41.874;12.526;2023-02-01T15:10:56;10.73;;;5.18;;
40537;SDS011;27925;41.874;12.526;2023-02-01T15:13:25;10.80;;;5.22;;
40537;SDS011;27925;41.874;12.526;2023-02-01T15:16:09;9.98;;;4.47;;
40537;SDS011;27925;41.874;12.526;2023-02-01T15:21:03;11.80;;;3.92;;
40537;SDS011;27925;41.874;12.526;2023-02-01T15:23:30;9.23;;;3.50;;
40537;SDS011;27925;41.874;12.526;2023-02-01T15:25:57;9.90;;;3.10;;
40537;SDS011;27925;41.874;12.526;2023-02-01T15:28:24;15.00;;;3.72;;
40537;SDS011;27925;41.874;12.526;2023-02-01T15:30:54;9.25;;;3.33;;
40537;SDS011;27925;41.874;12.526;2023-02-01T15:33:28;10.65;;;3.40;;
40537;SDS011;27925;41.874;12.526;2023-02-01T15:38:40;6.75;;;2.58;;
40537;SDS011;27925;41.874;12.526;2023-02-01T15:43:47;7.13;;;3.00;;
40537;SDS011;27925;41.874;12.526;2023-02-01T15:46:32;14.10;;;3.65;;
40537;SDS011;27925;41.874;12.526;2023-02-01T15:48:59;9.60;;;3.63;;
40537;SDS011;27925;41.874;12.526;2023-02-01T15:51:26;10.18;;;3.80;;
40537;SDS011;27925;41.874;12.526;2023-02-01T15:54:01;13.70;;;3.85;;
40537;SDS011;27925;41.874;12.526;2023-02-01T15:56:33;8.57;;;3.17;;
40537;SDS011;27925;41.874;12.526;2023-02-01T15:59:01;12.73;;;4.22;;
40537;SDS011;27925;41.874;12.526;2023-02-01T16:01:29;13.18;;;4.03;;
40537;SDS011;27925;41.874;12.526;2023-02-01T16:09:16;8.52;;;3.15;;
40537;SDS011;27925;41.874;12.526;2023-02-01T16:14:25;9.90;;;3.78;;
40537;SDS011;27925;41.874;12.526;2023-02-01T16:16:52;9.57;;;3.75;;
40537;SDS011;27925;41.874;12.526;2023-02-01T16:19:21;8.52;;;3.35;;
40537;SDS011;27925;41.874;12.526;2023-02-01T16:21:50;8.23;;;3.20;;
40537;SDS011;27925;41.874;12.526;2023-02-01T16:24:15;11.25;;;3.60;;
40537;SDS011;27925;41.874;12.526;2023-02-01T16:26:41;10.73;;;4.05;;
40537;SDS011;27925;41.874;12.526;2023-02-01T16:29:08;11.00;;;3.80;;
40537;SDS011;27925;41.874;12.526;2023-02-01T16:31:34;12.70;;;4.28;;
40537;SDS011;27925;41.874;12.526;2023-02-01T16:34:02;10.43;;;4.00;;
40537;SDS011;27925;41.874;12.526;2023-02-01T16:36:30;9.32;;;4.20;;
40537;SDS011;27925;41.874;12.526;2023-02-01T16:38:56;15.93;;;4.63;;
40537;SDS011;27925;41.874;12.526;2023-02-01T16:41:23;12.75;;;4.55;;
40537;SDS011;27925;41.874;12.526;2023-02-01T16:43:51;13.18;;;4.15;;
40537;SDS011;27925;41.874;12.526;2023-02-01T16:46:19;12.80;;;4.70;;
40537;SDS011;27925;41.874;12.526;2023-02-01T16:48:55;10.30;;;4.10;;
40537;SDS011;27925;41.874;12.526;2023-02-01T16:53:49;13.65;;;5.38;;
40537;SDS011;27925;41.874;12.526;2023-02-01T16:56:19;15.68;;;5.70;;
40537;SDS011;27925;41.874;12.526;2023-02-01T16:58:53;20.75;;;6.05;;
40537;SDS011;27925;41.874;12.526;2023-02-01T17:01:19;11.95;;;5.82;;
40537;SDS011;27925;41.874;12.526;2023-02-01T17:03:45;15.27;;;6.60;;
40537;SDS011;27925;41.874;12.526;2023-02-01T17:06:13;13.85;;;6.40;;
40537;SDS011;27925;41.874;12.526;2023-02-01T17:08:43;15.10;;;7.10;;
40537;SDS011;27925;41.874;12.526;2023-02-01T17:11:11;16.92;;;6.38;;
40537;SDS011;27925;41.874;12.526;2023-02-01T17:13:38;15.27;;;6.13;;
40537;SDS011;27925;41.874;12.526;2023-02-01T17:16:13;14.65;;;7.32;;
40537;SDS011;27925;41.874;12.526;2023-02-01T17:18:43;19.73;;;8.77;;
40537;SDS011;27925;41.874;12.526;2023-02-01T17:21:15;25.77;;;7.20;;
40537;SDS011;27925;41.874;12.526;2023-02-01T17:23:41;17.02;;;6.22;;
40537;SDS011;27925;41.874;12.526;2023-02-01T17:26:08;15.70;;;6.07;;